Time;durP1;ratioP1;P1;durP2;ratioP2;P2;SDS_P1;SDS_P2;PMS_P1;PMS_P2;Temp;Humidity;BMP_temperature;BMP_pressure;BME280_temperature;BME280_humidity;BME280_pressure;Samples;Min_cycle;Max_cycle;Signal;HPM_P1;HPM_P2
2021/12/04 00:02:05;;;;;;;3.28;1.08;;;;;;;9.40;100.00;99175.09;5021571;28;20074;-77
2021/12/04 00:04:34;;;;;;;3.13;0.95;;;;;;;9.39;100.00;99176.25;5029998;28;20028;-77
2021/12/04 00:07:02;;;;;;;1.88;1.00;;;;;;;9.43;100.00;99173.66;5036750;28;20127;-77
2021/12/04 00:09:29;;;;;;;3.67;1.02;;;;;;;9.45;100.00;99174.97;5060883;28;20085;-78
2021/12/04 00:12:02;;;;;;;3.65;1.10;;;;;;;9.44;100.00;99162.22;5049990;28;20043;-77
2021/12/04 00:14:36;;;;;;;2.25;0.73;;;;;;;9.43;100.00;99165.34;5049354;28;20028;-77
2021/12/04 00:17:05;;;;;;;3.30;1.05;;;;;;;9.44;100.00;99150.34;5042053;28;20024;-78
2021/12/04 00:19:33;;;;;;;4.15;1.15;;;;;;;9.43;100.00;99157.84;5043674;28;20039;-77
2021/12/04 00:22:01;;;;;;;2.30;0.88;;;;;;;9.44;100.00;99153.13;5038526;28;20024;-77
2021/12/04 00:24:30;;;;;;;2.30;0.98;;;;;;;9.42;100.00;99147.91;5033966;28;20063;-78
2021/12/04 00:26:56;;;;;;;3.90;1.02;;;;;;;9.45;100.00;99147.25;5081253;28;20052;-78
2021/12/04 00:29:24;;;;;;;3.70;1.05;;;;;;;9.45;100.00;99138.13;5063843;28;20358;-78
2021/12/04 00:31:55;;;;;;;4.10;1.00;;;;;;;9.44;100.00;99134.53;5064004;28;20170;-78
2021/12/04 00:34:26;;;;;;;2.13;1.05;;;;;;;9.45;100.00;99138.94;5086270;28;20073;-78
2021/12/04 00:50:36;;;;;;;1.80;0.95;;;;;;;9.46;100.00;99118.41;5074483;28;20036;-78
2021/12/04 00:53:04;;;;;;;3.10;1.00;;;;;;;9.48;100.00;99124.44;5049866;28;20056;-77
2021/12/04 00:55:35;;;;;;;4.45;0.82;;;;;;;9.48;100.00;99116.13;5038991;28;20051;-77
2021/12/04 00:58:01;;;;;;;2.20;1.58;;;;;;;9.47;100.00;99113.66;5057437;28;20033;-77
2021/12/04 01:00:27;;;;;;;3.75;1.00;;;;;;;9.46;100.00;99117.59;5037826;28;20286;-78
2021/12/04 01:02:55;;;;;;;1.73;1.02;;;;;;;9.45;100.00;99107.66;5053205;28;20104;-77
2021/12/04 01:05:21;;;;;;;4.20;0.98;;;;;;;9.47;100.00;99106.19;5020150;28;20051;-78
2021/12/04 01:07:49;;;;;;;2.10;1.20;;;;;;;9.48;100.00;99105.06;5027695;28;20032;-77
2021/12/04 01:10:20;;;;;;;4.30;1.25;;;;;;;9.48;100.00;99113.38;5057283;28;20032;-78
2021/12/04 01:12:50;;;;;;;2.85;1.05;;;;;;;9.47;100.00;99100.66;5032569;28;20699;-77
2021/12/04 01:15:24;;;;;;;2.42;1.25;;;;;;;9.46;100.00;99098.19;5063499;28;20085;-77
2021/12/04 01:18:01;;;;;;;3.38;0.90;;;;;;;9.47;100.00;99100.66;5051865;28;20039;-78
2021/12/04 01:20:27;;;;;;;1.75;1.05;;;;;;;9.47;100.00;99105.34;5044012;28;20386;-77
2021/12/04 01:22:58;;;;;;;5.22;1.10;;;;;;;9.47;100.00;99099.81;5019022;28;20032;-77
2021/12/04 01:25:29;;;;;;;1.83;0.77;;;;;;;9.48;100.00;99107.81;5045463;28;21485;-77
2021/12/04 01:27:55;;;;;;;2.40;1.00;;;;;;;9.48;100.00;99102.28;5042876;28;20049;-78
2021/12/04 01:30:20;;;;;;;2.85;1.00;;;;;;;9.50;100.00;99102.78;5060683;28;20056;-77
2021/12/04 01:32:49;;;;;;;4.07;0.80;;;;;;;9.49;100.00;99101.13;5056241;28;20055;-78
2021/12/04 01:35:24;;;;;;;2.05;1.02;;;;;;;9.49;100.00;99101.13;5070566;28;20051;-77
2021/12/04 01:37:50;;;;;;;3.03;0.88;;;;;;;9.48;100.00;99098.69;5037261;28;20041;-77
2021/12/04 01:40:17;;;;;;;1.67;1.02;;;;;;;9.51;100.00;99098.06;5022851;28;20113;-77
2021/12/04 01:42:51;;;;;;;2.13;0.60;;;;;;;9.48;100.00;99096.75;5046202;28;20440;-77
2021/12/04 01:45:21;;;;;;;1.35;0.73;;;;;;;9.50;100.00;99093.63;5068069;28;20024;-77
2021/12/04 01:48:00;;;;;;;3.17;1.10;;;;;;;9.51;100.00;99096.09;5087045;28;20036;-77
2021/12/04 01:50:31;;;;;;;3.35;0.82;;;;;;;9.52;100.00;99083.03;5070458;28;20033;-77
2021/12/04 01:53:12;;;;;;;4.03;0.73;;;;;;;9.52;100.00;99091.34;5033690;28;20380;-77
2021/12/04 01:55:43;;;;;;;2.53;0.82;;;;;;;9.52;100.00;99074.72;5045685;28;20028;-77
2021/12/04 01:58:14;;;;;;;2.33;1.20;;;;;;;9.52;100.00;99078.31;5025251;28;20045;-77
2021/12/04 02:00:49;;;;;;;2.63;0.90;;;;;;;9.52;100.00;99075.53;5019984;28;20117;-78
2021/12/04 02:03:20;;;;;;;1.65;0.70;;;;;;;9.52;100.00;99091.34;5041525;28;20025;-78
2021/12/04 02:05:48;;;;;;;4.38;0.80;;;;;;;9.52;100.00;99086.63;5042674;28;20024;-77
2021/12/04 02:08:16;;;;;;;4.47;1.17;;;;;;;9.52;100.00;99080.28;5045363;28;20024;-77
2021/12/04 02:10:44;;;;;;;1.58;0.70;;;;;;;9.52;100.00;99083.84;5054090;28;20031;-77
2021/12/04 02:13:14;;;;;;;2.70;0.60;;;;;;;9.51;100.00;99085.00;5015307;28;20465;-77
2021/12/04 02:15:43;;;;;;;2.35;0.70;;;;;;;9.52;100.00;99078.31;5025753;28;20040;-78
2021/12/04 02:18:09;;;;;;;6.82;0.85;;;;;;;9.52;100.00;99075.53;5032786;28;20465;-78
2021/12/04 02:20:40;;;;;;;2.35;0.63;;;;;;;9.52;100.00;99070.00;5069078;28;20028;-77
2021/12/04 02:23:12;;;;;;;2.25;0.73;;;;;;;9.52;100.00;99071.97;5052059;28;20028;-78
2021/12/04 02:25:45;;;;;;;3.35;0.82;;;;;;;9.52;100.00;99070.00;5034956;28;20036;-78
2021/12/04 02:28:16;;;;;;;1.80;0.75;;;;;;;9.51;100.00;99060.06;5054694;28;20409;-77
2021/12/04 02:30:47;;;;;;;1.95;0.75;;;;;;;9.51;100.00;99062.84;5023470;28;20060;-78
2021/12/04 02:33:18;;;;;;;2.30;0.63;;;;;;;9.55;100.00;99068.53;5035016;28;20032;-78
2021/12/04 02:35:57;;;;;;;2.15;0.50;;;;;;;9.54;100.00;99061.38;5041648;28;20063;-77
2021/12/04 02:38:25;;;;;;;1.40;0.50;;;;;;;9.54;100.00;99066.91;5041355;28;20472;-77
2021/12/04 02:40:59;;;;;;;3.97;0.95;;;;;;;9.54;100.00;99069.69;5064703;28;20039;-77
2021/12/04 02:43:28;;;;;;;1.17;0.77;;;;;;;9.52;100.00;99064.47;5047620;28;20044;-78
2021/12/04 02:45:59;;;;;;;2.83;0.90;;;;;;;9.55;100.00;99068.53;5016628;28;20050;-77
2021/12/04 02:48:28;;;;;;;1.33;0.63;;;;;;;9.55;100.00;99066.59;5019570;28;20025;-78
2021/12/04 02:51:18;;;;;;;2.05;0.93;;;;;;;9.56;100.00;99059.09;5061032;28;21091;-78
2021/12/04 02:53:47;;;;;;;4.07;0.93;;;;;;;9.56;100.00;99048.03;5037144;28;20035;-77
2021/12/04 02:56:16;;;;;;;3.45;0.70;;;;;;;9.57;100.00;99057.97;5016932;28;20032;-78
2021/12/04 02:59:03;;;;;;;2.70;1.00;;;;;;;9.55;100.00;99041.63;5050231;28;20056;-78
2021/12/04 03:01:29;;;;;;;4.05;1.10;;;;;;;9.52;100.00;99045.06;5061625;28;20055;-77
2021/12/04 03:04:08;;;;;;;3.05;0.90;;;;;;;9.53;100.00;99043.94;5042049;28;20032;-78
2021/12/04 03:06:53;;;;;;;1.38;0.90;;;;;;;9.53;100.00;99043.13;5061309;28;20029;-78
2021/12/04 03:09:24;;;;;;;3.83;1.63;;;;;;;9.51;100.00;99029.59;5045498;28;20442;-77
2021/12/04 03:11:49;;;;;;;1.02;0.85;;;;;;;9.51;100.00;99045.41;5038552;28;20029;-78
2021/12/04 03:14:20;;;;;;;2.00;0.98;;;;;;;9.53;100.00;99038.41;5052687;28;20096;-77
2021/12/04 03:16:57;;;;;;;3.65;0.80;;;;;;;9.50;100.00;99036.28;5035878;28;20032;-78
2021/12/04 03:19:38;;;;;;;2.95;0.88;;;;;;;9.50;100.00;99039.03;5047130;28;20115;-77
2021/12/04 03:22:09;;;;;;;3.50;1.05;;;;;;;9.52;100.00;99035.94;5047615;28;20032;-78
2021/12/04 03:24:47;;;;;;;4.05;0.85;;;;;;;9.51;100.00;99034.31;5040206;28;20363;-78
2021/12/04 03:27:18;;;;;;;2.65;0.80;;;;;;;9.50;100.00;99038.19;5084515;28;20040;-77
2021/12/04 03:29:59;;;;;;;1.33;0.82;;;;;;;9.50;100.00;99041.81;5050336;28;20415;-77
2021/12/04 03:42:55;;;;;;;1.92;0.93;;;;;;;9.40;100.00;99028.25;5048887;28;20102;-78
2021/12/04 03:45:26;;;;;;;1.45;0.70;;;;;;;9.38;100.00;99023.00;5033307;28;20029;-77
2021/12/04 03:48:03;;;;;;;2.72;0.65;;;;;;;9.36;100.00;99025.31;5038118;28;20072;-78
2021/12/04 03:50:31;;;;;;;0.98;0.88;;;;;;;9.33;100.00;99020.44;5042337;28;20021;-78
2021/12/04 03:53:05;;;;;;;2.90;0.90;;;;;;;9.33;100.00;99025.13;5031618;28;20028;-78
2021/12/04 03:55:36;;;;;;;3.55;0.98;;;;;;;9.29;100.00;99027.72;5049198;28;20036;-78
2021/12/04 03:58:04;;;;;;;2.55;0.80;;;;;;;9.27;100.00;99029.19;5031704;28;20065;-77
2021/12/04 04:00:33;;;;;;;1.85;0.70;;;;;;;9.25;100.00;99026.75;5067811;28;20025;-78
2021/12/04 04:02:59;;;;;;;1.35;0.70;;;;;;;9.24;100.00;99030.66;5039659;28;20131;-78
2021/12/04 04:05:25;;;;;;;2.78;0.68;;;;;;;9.23;100.00;99036.53;5035538;28;20033;-78
2021/12/04 04:07:56;;;;;;;3.97;0.60;;;;;;;9.22;100.00;99018.25;5040385;28;20031;-78
2021/12/04 04:10:24;;;;;;;3.40;0.68;;;;;;;9.23;100.00;99028.22;5024509;28;20023;-77
2021/12/04 04:12:50;;;;;;;1.15;0.60;;;;;;;9.21;100.00;99027.72;5059987;28;20115;-77
2021/12/04 04:15:18;;;;;;;2.25;0.90;;;;;;;9.20;100.00;99034.41;5075346;28;20077;-78
2021/12/04 04:17:47;;;;;;;2.50;0.70;;;;;;;9.18;100.00;99024.44;5051022;28;20048;-78
2021/12/04 04:20:22;;;;;;;1.10;0.70;;;;;;;9.20;100.00;99028.84;5033286;28;20037;-78
2021/12/04 04:22:56;;;;;;;5.40;1.52;;;;;;;9.18;100.00;99020.84;5057301;28;20366;-77
2021/12/04 04:25:24;;;;;;;4.75;1.00;;;;;;;9.18;100.00;99034.69;5035826;28;20029;-78
2021/12/04 04:27:53;;;;;;;1.83;0.70;;;;;;;9.15;100.00;99032.56;5072879;28;20123;-78
2021/12/04 04:30:19;;;;;;;3.85;0.60;;;;;;;9.15;100.00;99038.13;5054981;28;20094;-77
2021/12/04 04:32:48;;;;;;;1.75;0.50;;;;;;;9.14;100.00;99040.06;5054958;28;20118;-77
2021/12/04 04:35:16;;;;;;;3.35;0.70;;;;;;;9.13;100.00;99041.19;5029461;28;20025;-77
2021/12/04 05:10:20;;;;;;;4.15;0.70;;;;;;;9.09;100.00;99112.22;5055934;28;20036;-77
2021/12/04 05:12:54;;;;;;;2.65;0.73;;;;;;;9.05;100.00;99122.28;5046950;28;20433;-77
2021/12/04 05:15:42;;;;;;;6.55;1.02;;;;;;;9.04;100.00;99122.63;5035762;28;20039;-77
2021/12/04 05:18:35;;;;;;;7.82;1.00;;;;;;;8.98;100.00;99127.47;5036891;28;20035;-78
2021/12/04 05:21:10;;;;;;;7.70;0.90;;;;;;;8.93;100.00;99125.66;5044716;28;20091;-78
2021/12/04 05:24:01;;;;;;;7.35;0.73;;;;;;;8.90;100.00;99131.00;5044634;28;20037;-78
2021/12/04 05:26:27;;;;;;;6.65;0.90;;;;;;;8.87;100.00;99138.00;5056358;28;20028;-77
2021/12/04 05:29:02;;;;;;;5.38;1.05;;;;;;;8.83;100.00;99133.41;5051939;28;20515;-78
2021/12/04 05:31:29;;;;;;;8.52;1.40;;;;;;;8.79;100.00;99143.47;5037549;28;20047;-77
2021/12/04 05:33:54;;;;;;;6.40;0.82;;;;;;;8.70;100.00;99144.22;5017773;28;20025;-78
2021/12/04 05:36:20;;;;;;;10.82;1.75;;;;;;;8.65;100.00;99147.13;5044145;28;20025;-77
2021/12/04 05:38:46;;;;;;;6.25;0.90;;;;;;;8.61;100.00;99157.19;5055506;28;20553;-78
2021/12/04 05:41:19;;;;;;;9.23;1.63;;;;;;;8.56;100.00;99159.28;5062058;28;20023;-78
2021/12/04 05:43:45;;;;;;;9.65;1.25;;;;;;;8.50;100.00;99166.88;5046289;28;20033;-77
2021/12/04 05:46:22;;;;;;;7.15;0.93;;;;;;;8.45;100.00;99162.28;5041991;28;20060;-77
2021/12/04 05:49:03;;;;;;;6.15;1.25;;;;;;;8.39;100.00;99177.38;5036080;28;20023;-77
2021/12/04 05:54:45;;;;;;;4.43;1.10;;;;;;;8.27;100.00;99175.13;5077382;28;20024;-78
2021/12/04 05:57:11;;;;;;;9.73;1.23;;;;;;;8.15;100.00;99174.81;5045472;28;20032;-77
2021/12/04 05:59:39;;;;;;;6.90;1.00;;;;;;;8.07;100.00;99190.19;5074463;28;20051;-78
2021/12/04 06:02:07;;;;;;;5.82;0.80;;;;;;;8.04;100.00;99193.56;5050926;28;20032;-77
2021/12/04 06:04:33;;;;;;;15.10;1.15;;;;;;;7.95;100.00;99200.16;5021245;28;20385;-77
2021/12/04 06:07:01;;;;;;;9.00;1.52;;;;;;;7.90;100.00;99197.50;5032252;28;20028;-78
2021/12/04 06:09:29;;;;;;;9.27;1.27;;;;;;;7.87;100.00;99207.22;5025021;28;20036;-77
2021/12/04 06:12:04;;;;;;;9.57;1.63;;;;;;;7.81;100.00;99212.03;5054153;28;20024;-78
2021/12/04 06:14:31;;;;;;;11.60;1.08;;;;;;;7.77;100.00;99211.03;5037251;28;20071;-77
2021/12/04 06:16:57;;;;;;;7.97;1.13;;;;;;;7.73;100.00;99214.69;5047348;28;20028;-77
2021/12/04 06:25:01;;;;;;;11.25;1.13;;;;;;;7.58;100.00;99207.53;5078088;28;20055;-77
2021/12/04 06:27:26;;;;;;;16.10;1.73;;;;;;;7.53;100.00;99208.44;5046112;28;20037;-77
2021/12/04 06:29:55;;;;;;;13.90;1.88;;;;;;;7.53;100.00;99218.69;5030038;28;20062;-77
2021/12/04 06:32:21;;;;;;;8.73;1.33;;;;;;;7.50;100.00;99216.53;5038157;28;20025;-77
2021/12/04 06:34:49;;;;;;;11.68;1.85;;;;;;;7.50;100.00;99219.28;5045640;28;20039;-78
2021/12/04 06:37:17;;;;;;;11.70;2.38;;;;;;;7.49;100.00;99214.88;5030735;28;20023;-77
2021/12/04 06:39:43;;;;;;;9.70;1.50;;;;;;;7.47;100.00;99217.97;5032519;28;20028;-77
2021/12/04 06:42:11;;;;;;;16.55;2.05;;;;;;;7.47;100.00;99226.25;5044501;28;20628;-77
2021/12/04 06:44:39;;;;;;;12.02;1.60;;;;;;;7.47;100.00;99229.00;5022712;28;20034;-77
2021/12/04 06:47:04;;;;;;;14.45;1.83;;;;;;;7.47;100.00;99219.91;5050531;28;20059;-78
2021/12/04 06:49:35;;;;;;;14.10;1.70;;;;;;;7.40;100.00;99228.56;5067997;28;20027;-78
2021/12/04 06:52:04;;;;;;;15.15;2.00;;;;;;;7.41;100.00;99232.16;5089607;28;20031;-77
2021/12/04 06:54:49;;;;;;;13.90;1.80;;;;;;;7.36;100.00;99233.09;5048882;28;20039;-77
2021/12/04 06:57:16;;;;;;;9.43;1.40;;;;;;;7.32;100.00;99243.91;5064352;28;20331;-77
2021/12/04 06:59:42;;;;;;;11.38;1.60;;;;;;;7.29;100.00;99247.25;5019693;28;20028;-77
2021/12/04 07:02:11;;;;;;;12.63;1.77;;;;;;;7.26;100.00;99256.16;5017568;28;20461;-78
2021/12/04 07:04:39;;;;;;;12.80;1.95;;;;;;;7.27;100.00;99245.94;5059439;28;20099;-77
2021/12/04 07:07:06;;;;;;;15.90;2.63;;;;;;;7.24;100.00;99252.06;5043639;28;20048;-77
2021/12/04 07:09:32;;;;;;;16.20;2.25;;;;;;;7.21;100.00;99256.25;5077158;28;20020;-78
2021/12/04 07:11:59;;;;;;;12.48;2.22;;;;;;;7.19;100.00;99258.50;5063952;28;20483;-77
2021/12/04 07:14:26;;;;;;;12.13;1.80;;;;;;;7.21;100.00;99260.94;5061615;28;20024;-77
2021/12/04 07:16:58;;;;;;;13.20;1.90;;;;;;;7.18;100.00;99267.09;5030312;28;20023;-77
2021/12/04 07:19:23;;;;;;;8.65;1.65;;;;;;;7.15;100.00;99271.25;5036045;28;20027;-77
2021/12/04 07:21:49;;;;;;;14.40;2.10;;;;;;;7.12;100.00;99272.69;5047180;28;20032;-78
2021/12/04 07:24:15;;;;;;;11.82;2.22;;;;;;;7.12;100.00;99274.63;5043788;28;20488;-77
2021/12/04 07:26:40;;;;;;;20.38;2.15;;;;;;;7.11;100.00;99276.56;5054601;28;20136;-77
2021/12/04 07:29:06;;;;;;;12.88;2.22;;;;;;;7.08;100.00;99288.22;5055333;28;20028;-77
2021/12/04 07:31:32;;;;;;;11.02;1.73;;;;;;;7.07;100.00;99281.03;5049912;28;20032;-78
2021/12/04 07:34:02;;;;;;;15.35;2.47;;;;;;;7.08;100.00;99295.69;5039046;28;20094;-77
2021/12/04 07:36:27;;;;;;;14.98;2.20;;;;;;;7.05;100.00;99293.50;5032971;28;20080;-77
2021/12/04 07:38:53;;;;;;;15.45;2.30;;;;;;;7.06;100.00;99300.69;5039824;28;20115;-77
2021/12/04 07:41:22;;;;;;;16.10;2.60;;;;;;;7.06;100.00;99300.69;5047232;28;20044;-77
2021/12/04 07:43:48;;;;;;;13.43;2.55;;;;;;;7.05;100.00;99301.78;5057046;28;20039;-77
2021/12/04 07:46:17;;;;;;;16.02;3.08;;;;;;;7.03;100.00;99304.88;5072538;28;20046;-78
2021/12/04 07:48:50;;;;;;;16.95;2.60;;;;;;;7.00;100.00;99299.13;5055860;28;20115;-77
2021/12/04 07:51:19;;;;;;;14.88;2.35;;;;;;;7.01;100.00;99298.00;5047379;28;20028;-77
2021/12/04 07:53:47;;;;;;;11.57;2.22;;;;;;;7.00;100.00;99313.75;5031424;28;20032;-78
2021/12/04 07:56:15;;;;;;;19.27;2.55;;;;;;;6.97;100.00;99314.34;5052843;28;20508;-78
2021/12/04 07:58:42;;;;;;;10.68;1.90;;;;;;;6.97;100.00;99316.28;5032234;28;20099;-77
2021/12/04 08:01:09;;;;;;;15.00;2.40;;;;;;;6.93;100.00;99310.53;5061872;28;20040;-77
2021/12/04 08:03:35;;;;;;;15.75;2.22;;;;;;;6.93;100.00;99316.06;5061901;28;20032;-78
2021/12/04 08:06:01;;;;;;;12.70;1.88;;;;;;;6.92;100.00;99328.22;5025910;28;20029;-77
2021/12/04 08:08:32;;;;;;;13.63;2.30;;;;;;;6.88;100.00;99339.06;5036270;28;20633;-77
2021/12/04 08:10:57;;;;;;;12.85;1.77;;;;;;;6.89;100.00;99348.97;5039120;28;20376;-77
2021/12/04 08:13:23;;;;;;;17.20;2.15;;;;;;;6.87;100.00;99356.72;5046541;28;20031;-77
2021/12/04 08:15:55;;;;;;;12.23;2.25;;;;;;;6.86;100.00;99368.88;5034427;28;20036;-78
2021/12/04 08:18:21;;;;;;;13.70;2.08;;;;;;;6.87;100.00;99364.16;5073686;28;20040;-77
2021/12/04 08:20:48;;;;;;;14.15;2.83;;;;;;;6.88;100.00;99365.81;5061922;28;20056;-77
2021/12/04 08:23:13;;;;;;;13.40;1.90;;;;;;;6.87;100.00;99367.75;5025202;28;20036;-78
2021/12/04 08:25:46;;;;;;;10.27;2.05;;;;;;;6.88;100.00;99368.56;5041421;28;20027;-77
2021/12/04 08:28:17;;;;;;;12.15;2.05;;;;;;;6.88;100.00;99369.41;5029658;28;20123;-77
2021/12/04 08:30:50;;;;;;;13.05;1.85;;;;;;;6.88;100.00;99369.41;5056445;28;20028;-77
2021/12/04 08:33:16;;;;;;;13.52;1.50;;;;;;;6.91;100.00;99368.81;5050350;28;20077;-77
2021/12/04 08:35:41;;;;;;;14.57;1.52;;;;;;;6.94;100.00;99370.16;5030834;28;20032;-77
2021/12/04 08:38:11;;;;;;;11.77;2.03;;;;;;;6.94;100.00;99365.44;5048069;28;20474;-77
2021/12/04 08:40:37;;;;;;;10.95;1.75;;;;;;;6.97;100.00;99365.97;5040744;28;20052;-78
2021/12/04 08:43:11;;;;;;;7.05;1.75;;;;;;;6.98;100.00;99370.38;5056039;28;20060;-77
2021/12/04 08:45:37;;;;;;;6.60;1.30;;;;;;;6.99;100.00;99372.00;5040974;28;20056;-77
2021/12/04 08:48:05;;;;;;;9.70;1.40;;;;;;;7.03;100.00;99378.59;5031997;28;20088;-78
2021/12/04 08:50:39;;;;;;;9.82;1.30;;;;;;;7.05;100.00;99381.84;5049070;28;20031;-77
2021/12/04 08:53:08;;;;;;;6.30;1.00;;;;;;;7.08;100.00;99382.09;5062878;28;20024;-77
2021/12/04 08:55:43;;;;;;;7.78;1.20;;;;;;;7.12;100.00;99380.38;5071993;28;20039;-77
2021/12/04 08:58:13;;;;;;;8.73;1.38;;;;;;;7.16;100.00;99378.66;5088972;28;20558;-77
2021/12/04 09:00:49;;;;;;;7.22;1.67;;;;;;;7.23;100.00;99375.50;5051450;28;20058;-77
2021/12/04 09:03:20;;;;;;;10.23;1.88;;;;;;;7.26;100.00;99388.72;5088195;28;20027;-77
2021/12/04 09:05:46;;;;;;;6.60;1.30;;;;;;;7.32;100.00;99398.56;5062960;28;20107;-77
2021/12/04 09:08:12;;;;;;;11.02;1.42;;;;;;;7.35;100.00;99408.19;5057071;28;20040;-78
2021/12/04 09:10:43;;;;;;;10.68;1.42;;;;;;;7.39;100.00;99415.59;5073083;28;20039;-77
2021/12/04 09:13:09;;;;;;;11.85;1.70;;;;;;;7.45;100.00;99429.34;5075131;28;20021;-77
2021/12/04 09:15:36;;;;;;;8.60;1.60;;;;;;;7.47;100.00;99435.38;5069977;28;20090;-77
2021/12/04 09:18:02;;;;;;;14.73;2.15;;;;;;;7.47;100.00;99444.50;5047296;28;20047;-77
2021/12/04 09:20:30;;;;;;;11.88;2.38;;;;;;;7.48;100.00;99450.81;5091037;28;20036;-77
2021/12/04 09:23:01;;;;;;;17.88;2.42;;;;;;;7.47;100.00;99460.25;5077180;28;20523;-78
2021/12/04 09:25:29;;;;;;;8.75;1.67;;;;;;;7.47;100.00;99465.78;5067741;28;20025;-77
2021/12/04 10:00:27;;;;;;;7.60;1.67;;;;;;;6.55;100.00;99593.84;5074655;28;20031;-77
2021/12/04 10:03:36;;;;;;;8.32;1.88;;;;;;;6.49;100.00;99590.28;5065416;28;20070;-77
2021/12/04 10:19:30;;;;;;;11.20;2.67;;;;;;;6.26;100.00;99605.66;5068718;28;20023;-77
2021/12/04 10:33:40;;;;;;;;;;;;;;;6.29;100.00;99591.28;5076055;28;20029;-77
2021/12/04 10:36:06;;;;;;;14.05;2.60;;;;;;;6.33;100.00;99589.63;5041544;28;20322;-77
2021/12/04 10:38:38;;;;;;;13.13;2.47;;;;;;;6.35;100.00;99600.34;5064749;28;20023;-77
2021/12/04 10:41:04;;;;;;;11.57;1.98;;;;;;;6.36;100.00;99589.03;5052369;28;20024;-77
2021/12/04 10:43:31;;;;;;;10.18;2.03;;;;;;;6.40;100.00;99598.38;5043263;28;20032;-77
2021/12/04 10:46:01;;;;;;;9.77;1.80;;;;;;;6.44;100.00;99598.63;5061060;28;20024;-76
2021/12/04 10:48:32;;;;;;;7.97;2.17;;;;;;;6.48;100.00;99600.50;5059707;28;20032;-77
2021/12/04 10:53:36;;;;;;;8.88;1.88;;;;;;;6.57;100.00;99613.69;5065412;28;20028;-77
2021/12/04 11:42:09;;;;;;;7.95;2.25;;;;;;;7.33;100.00;99606.56;5093046;28;20057;-77
2021/12/04 11:44:48;;;;;;;8.63;1.70;;;;;;;7.36;100.00;99620.59;5041658;28;20028;-77
2021/12/04 11:47:13;;;;;;;9.40;1.52;;;;;;;7.37;100.00;99630.53;5031372;28;20047;-77
2021/12/04 11:49:39;;;;;;;6.22;1.20;;;;;;;7.41;100.00;99644.59;5064578;28;20392;-77
2021/12/04 11:52:11;;;;;;;6.95;1.67;;;;;;;7.45;100.00;99650.34;5039342;28;20032;-77
2021/12/04 11:54:47;;;;;;;10.30;1.58;;;;;;;7.46;100.00;99608.59;5052633;28;20038;-77
2021/12/04 11:57:13;;;;;;;10.00;1.67;;;;;;;7.45;100.00;99618.00;5061231;28;20036;-77
2021/12/04 11:59:40;;;;;;;7.90;1.35;;;;;;;7.42;100.00;99581.88;5070261;28;20089;-77
2021/12/04 12:02:08;;;;;;;6.43;1.05;;;;;;;7.43;100.00;99598.13;5059681;28;20119;-77
2021/12/04 12:04:42;;;;;;;7.38;2.47;;;;;;;7.39;100.00;99605.38;5047083;28;20036;-77
2021/12/04 12:07:16;;;;;;;4.65;1.67;;;;;;;7.37;100.00;99605.66;5060969;28;20572;-77
2021/12/04 12:09:42;;;;;;;5.32;1.15;;;;;;;7.38;100.00;99609.25;5095897;28;20081;-77
2021/12/04 12:12:11;;;;;;;7.90;1.67;;;;;;;7.36;100.00;99609.53;5057164;28;20028;-77
2021/12/04 12:14:44;;;;;;;7.05;1.23;;;;;;;7.38;100.00;99618.38;5095657;28;20476;-77
2021/12/04 12:17:10;;;;;;;9.90;1.63;;;;;;;7.36;100.00;99620.59;5053892;28;20039;-77
2021/12/04 12:19:41;;;;;;;7.20;1.30;;;;;;;7.35;100.00;99624.50;5073662;28;20025;-77
2021/12/04 12:22:36;;;;;;;4.72;1.08;;;;;;;7.40;100.00;99626.34;5059791;28;20476;-77
2021/12/04 12:25:31;;;;;;;7.18;1.33;;;;;;;7.42;100.00;99607.53;5036384;28;20032;-77
2021/12/04 12:36:11;;;;;;;8.32;2.78;;;;;;;7.47;100.00;99621.31;5091325;28;20036;-77
2021/12/04 12:38:51;;;;;;;8.43;2.20;;;;;;;7.52;100.00;99634.22;5052518;28;20081;-76
2021/12/04 12:41:39;;;;;;;6.93;2.13;;;;;;;7.55;100.00;99639.16;5046506;28;20040;-77
2021/12/04 12:44:09;;;;;;;9.02;2.30;;;;;;;7.55;100.00;99642.75;5100421;28;20096;-77
2021/12/04 12:46:43;;;;;;;12.18;2.90;;;;;;;7.58;100.00;99644.09;5088261;28;20098;-77
2021/12/04 12:49:21;;;;;;;12.13;2.33;;;;;;;7.58;100.00;99638.59;5026525;28;20025;-77
2021/12/04 12:52:02;;;;;;;12.18;2.55;;;;;;;7.58;100.00;99622.81;5057936;28;20085;-77
2021/12/04 12:54:32;;;;;;;8.95;2.55;;;;;;;7.57;100.00;99625.88;5059777;28;20376;-77
2021/12/04 12:57:08;;;;;;;12.05;3.17;;;;;;;7.58;100.00;99636.63;5080184;28;20040;-77
2021/12/04 12:59:43;;;;;;;12.68;3.03;;;;;;;7.60;100.00;99651.00;5074220;28;20487;-77
2021/12/04 13:13:31;;;;;;;6.63;2.13;;;;;;;7.43;100.00;99655.31;5092917;28;20111;-77
2021/12/04 13:16:05;;;;;;;12.88;2.35;;;;;;;7.41;100.00;99663.06;5062658;28;20048;-77
2021/12/04 13:18:32;;;;;;;7.22;1.90;;;;;;;7.43;100.00;99652.56;5065837;28;20109;-77
2021/12/04 13:21:03;;;;;;;11.05;2.38;;;;;;;7.37;100.00;99671.94;5064289;28;20028;-77
2021/12/04 13:23:28;;;;;;;10.20;2.63;;;;;;;7.34;100.00;99671.72;5045354;28;20037;-77
2021/12/04 13:26:03;;;;;;;9.40;2.60;;;;;;;7.36;100.00;99678.59;5045986;28;20082;-77
2021/12/04 13:28:30;;;;;;;9.30;2.65;;;;;;;7.31;100.00;99678.66;5091003;28;20127;-77
2021/12/04 13:30:56;;;;;;;12.70;2.80;;;;;;;7.25;100.00;99668.78;5059709;28;20025;-77
2021/12/04 13:33:22;;;;;;;13.10;3.42;;;;;;;7.12;100.00;99661.19;5091685;28;20100;-77
2021/12/04 13:35:47;;;;;;;14.00;3.17;;;;;;;7.15;100.00;99668.88;5051443;28;20392;-77
2021/12/04 13:38:14;;;;;;;12.07;2.90;;;;;;;7.14;100.00;99654.25;5093882;28;20064;-76
2021/12/04 13:40:40;;;;;;;8.00;2.10;;;;;;;7.16;100.00;99635.47;5073129;28;20036;-77
2021/12/04 13:43:12;;;;;;;14.23;2.20;;;;;;;7.16;100.00;99641.00;5065607;28;20089;-77
2021/12/04 13:45:38;;;;;;;12.32;3.00;;;;;;;7.20;100.00;99623.84;5060006;28;20332;-77
2021/12/04 13:48:04;;;;;;;12.60;2.42;;;;;;;7.25;100.00;99613.56;5055714;28;20032;-76
2021/12/04 13:53:13;;;;;;;12.25;2.65;;;;;;;7.28;100.00;99643.34;5062440;28;20107;-76
2021/12/04 13:55:39;;;;;;;5.38;1.40;;;;;;;7.16;100.00;99646.50;5068617;28;20047;-76
2021/12/04 13:58:05;;;;;;;6.05;1.08;;;;;;;6.90;100.00;99658.91;5076855;28;20032;-78
2021/12/04 14:00:30;;;;;;;6.55;1.90;;;;;;;6.83;100.00;99653.75;5071110;28;20773;-78
2021/12/04 14:02:56;;;;;;;10.63;1.77;;;;;;;6.80;100.00;99657.09;5076553;28;20036;-78
2021/12/04 14:05:23;;;;;;;8.45;2.10;;;;;;;6.66;100.00;99651.41;5096964;28;20032;-77
2021/12/04 14:07:52;;;;;;;9.90;1.98;;;;;;;6.52;100.00;99635.78;5064243;28;20068;-77
2021/12/04 14:10:19;;;;;;;8.93;1.85;;;;;;;6.39;100.00;99646.38;5064472;28;20118;-77
2021/12/04 14:12:45;;;;;;;8.18;2.05;;;;;;;6.29;100.00;99662.97;5061781;28;20050;-77
2021/12/04 14:15:12;;;;;;;7.82;1.80;;;;;;;6.19;100.00;99654.81;5053946;28;20028;-77
2021/12/04 14:17:37;;;;;;;7.50;1.48;;;;;;;6.12;100.00;99659.81;5087315;28;20451;-77
2021/12/04 14:20:04;;;;;;;5.78;1.40;;;;;;;6.00;100.00;99654.63;5039910;28;20028;-77
2021/12/04 14:22:30;;;;;;;5.40;1.38;;;;;;;5.93;100.00;99660.44;5070098;28;20084;-77
2021/12/04 14:24:58;;;;;;;6.45;1.65;;;;;;;5.87;100.00;99666.25;5040043;28;20067;-77
2021/12/04 14:27:25;;;;;;;6.63;1.40;;;;;;;5.80;100.00;99661.06;5099501;28;20044;-77
2021/12/04 14:29:53;;;;;;;6.50;1.50;;;;;;;5.75;100.00;99659.13;5067277;28;20043;-77
2021/12/04 14:32:26;;;;;;;7.80;1.50;;;;;;;5.70;100.00;99663.84;5066271;28;20227;-76
2021/12/04 14:35:15;;;;;;;5.60;1.05;;;;;;;5.67;100.00;99668.00;5049715;28;20028;-77
2021/12/04 14:37:42;;;;;;;4.10;1.30;;;;;;;5.65;100.00;99669.38;5048556;28;20039;-76
2021/12/04 14:40:12;;;;;;;4.47;1.15;;;;;;;5.63;100.00;99666.06;5044655;28;20120;-77
2021/12/04 14:42:37;;;;;;;6.57;1.27;;;;;;;5.62;100.00;99672.69;5085626;28;20054;-77
2021/12/04 14:45:14;;;;;;;3.22;1.10;;;;;;;5.59;100.00;99666.63;5069331;28;20500;-77
2021/12/04 14:47:46;;;;;;;5.13;1.48;;;;;;;5.58;100.00;99659.50;5065752;28;20431;-77
2021/12/04 14:50:13;;;;;;;3.33;1.00;;;;;;;5.59;100.00;99660.31;5051984;28;20543;-76
2021/12/04 14:52:38;;;;;;;3.47;1.02;;;;;;;5.55;100.00;99654.56;5046181;28;20120;-77
2021/12/04 14:55:32;;;;;;;1.92;0.75;;;;;;;5.56;100.00;99655.38;5057713;28;20071;-77
2021/12/04 14:57:59;;;;;;;;;;;;;;;5.56;100.00;99661.69;5062241;28;20533;-76
2021/12/04 15:00:30;;;;;;;1.95;0.85;;;;;;;5.55;100.00;99670.25;5088672;28;19951;-76